Flight Track Log - Related Links

Times and Time Zones

All times are in EDT time to prevent confusion due to time zone crossing. See the SKW5550 flight status page for this flight to view local times or setup timezone preferences in your user account.

Time Position Orientation Groundspeed Altitude Reporting Facility
EDT Latitude Longitude Course Direction KTS MPH feet Rate Location/Type
Thu 08:24:00 AM 44.3489 -108.8489 144° Southeast  Level Estimated
Thu 08:25:00 AM 44.2632 -108.7618 144° Southeast  Level Estimated
Thu 08:26:00 AM 44.1774 -108.6750 144° Southeast  Level Estimated
Thu 08:27:00 AM 44.0801 -108.5770 144° Southeast  Level Estimated
Thu 08:27:49 AM 44.4469 -108.8400 144° Southeast 262 302 14,800  Level Salt Lake Center
Thu 08:28:00 AM 43.9828 -108.4792 144° Southeast  Level Estimated
Thu 08:28:50 AM 44.3472 -108.8067 167° South 329 379 16,600  Level Salt Lake Center
Thu 08:29:00 AM 43.8854 -108.3818 144° Southeast  Level Estimated
Thu 08:29:50 AM 44.2617 -108.7556 157° South 338 389 17,700  Level Salt Lake Center
Thu 08:30:00 AM 43.7878 -108.2848 144° Southeast  Level Estimated
Thu 08:30:51 AM 44.1711 -108.7036 158° South 351 404 18,600  Level Salt Lake Center
Thu 08:31:00 AM 43.6903 -108.1880 144° Southeast  Level Estimated
Thu 08:31:51 AM 44.0769 -108.6494 158° South 364 419 19,500  Level Salt Lake Center
Thu 08:32:00 AM 43.5926 -108.0916 144° Southeast  Level Estimated
Thu 08:32:52 AM 43.9617 -108.5844 158° South 384 442 21,400  Level Salt Lake Center
Thu 08:33:00 AM 43.4948 -107.9954 144° Southeast  Level Estimated
Thu 08:33:52 AM 43.8681 -108.5303 157° South 383 441 22,600  Level Salt Lake Center
Thu 08:34:53 AM 43.7686 -108.4742 158° South 398 458 23,400 843 Climbing Salt Lake Center
Thu 08:35:53 AM 43.6631 -108.4150 158° South 402 463 24,300 1,041 Climbing Salt Lake Center
Thu 08:36:54 AM 43.5439 -108.3472 158° South 413 475 25,500 934 Climbing Salt Lake Center
Thu 08:37:55 AM 43.4436 -108.2825 155° Southeast 416 479 26,200 694 Climbing Salt Lake Center
Thu 08:38:55 AM 43.3544 -108.1856 142° Southeast 424 488 26,900 397 Climbing Salt Lake Center
Thu 08:39:56 AM 43.2453 -108.0706 142° Southeast 438 504 27,000 50 Climbing Salt Lake Center
Thu 08:40:56 AM 43.1486 -107.9672 142° Southeast 453 521 27,000  Level Salt Lake Center
Thu 08:41:57 AM 43.0497 -107.8644 143° Southeast 462 532 27,000  Level Salt Lake Center
Thu 08:42:58 AM 42.9533 -107.7608 142° Southeast 461 531 27,000  Level Salt Lake Center
Thu 08:43:58 AM 42.8428 -107.6467 143° Southeast 450 518 27,000  Level Salt Lake Center
Thu 08:44:59 AM 42.7481 -107.5483 143° Southeast 448 516 27,000  Level Salt Lake Center
Thu 08:46:00 AM 42.6542 -107.4519 143° Southeast 442 509 27,000  Level Salt Lake Center
Thu 08:47:00 AM 42.5431 -107.3369 143° Southeast 447 514 27,000  Level Salt Lake Center
Thu 08:47:33 AM 42.4933 -107.2853 143° Southeast 448 516 27,000  Level Denver Center
Thu 08:48:34 AM 42.3981 -107.1889 143° Southeast 448 516 27,000  Level Denver Center
Thu 08:49:36 AM 42.2867 -107.0753 143° Southeast 447 514 27,000  Level Denver Center
Thu 08:50:37 AM 42.1928 -106.9781 142° Southeast 445 512 27,000  Level Denver Center
Thu 08:51:38 AM 42.0806 -106.8667 144° Southeast 447 514 27,000  Level Denver Center
Thu 08:52:39 AM 41.9864 -106.7700 143° Southeast 445 512 27,000  Level Denver Center
Thu 08:53:40 AM 41.8894 -106.6739 144° Southeast 450 518 27,000  Level Denver Center
Thu 08:54:41 AM 41.7786 -106.5625 143° Southeast 446 513 27,000  Level Denver Center
Thu 08:55:42 AM 41.6719 -106.4661 146° Southeast 446 513 27,000  Level Denver Center
Thu 08:56:44 AM 41.5636 -106.4169 161° South 433 498 27,000  Level Denver Center
Thu 08:57:45 AM 41.4561 -106.3708 162° South 428 493 27,000  Level Denver Center
Thu 08:58:46 AM 41.3297 -106.3161 162° South 428 493 27,000  Level Denver Center
Thu 08:59:48 AM 41.2128 -106.2658 162° South 424 488 27,000  Level Denver Center
Thu 09:00:49 AM 41.1167 -106.1861 148° Southeast 430 495 27,000  Level Denver Center
Thu 09:01:50 AM 41.0181 -106.0894 144° Southeast 431 496 27,000  Level Denver Center
Thu 09:02:51 AM 40.9272 -105.9975 143° Southeast 432 497 27,000  Level Denver Center
Thu 09:03:52 AM 40.8300 -105.9022 143° Southeast 435 501 27,000  Level Denver Center
Thu 09:04:53 AM 40.7339 -105.8056 143° Southeast 434 499 27,000  Level Denver Center
Thu 09:05:54 AM 40.6378 -105.7125 144° Southeast 432 497 27,000 -244 Level Denver Center
Thu 09:06:56 AM 40.5214 -105.5986 143° Southeast 434 499 26,500 -1,707 Descending Denver Center
Thu 09:07:57 AM 40.4222 -105.5036 144° Southeast 440 506 23,500 -2,754 Descending Denver Center
Thu 09:08:58 AM 40.3333 -105.4011 139° Southeast 418 481 20,900 -2,361 Descending Denver Center
Thu 09:09:59 AM 40.2647 -105.2911 129° Southeast 378 435 18,700 -1,967 Descending Denver Center
Thu 09:11:00 AM 40.1961 -105.1844 130° Southeast 360 414 16,900 -1,820 Descending Denver Center
Thu 09:12:01 AM 40.1322 -105.0856 130° Southeast 354 407 15,000 -1,426 Descending Denver Center
Thu 09:13:02 AM 40.0733 -104.9856 128° Southeast 347 399 14,000 -927 Descending Denver Center
Thu 09:14:04 AM 40.0161 -104.8817 126° Southeast 352 405 13,100 -732 Descending Denver Center
Thu 09:15:05 AM 39.9817 -104.7575 110° East 339 390 12,500 -836 Descending Denver Center
Thu 09:16:06 AM 39.9772 -104.6431 93° East 310 357 11,400 -738 Descending Denver Center
Thu 09:17:07 AM 39.9747 -104.5439 92° East 272 313 11,000 -541 Descending Denver Center
Thu 09:18:08 AM 39.9689 -104.4525 95° East 256 295 10,300 -689 Descending Denver Center

Login

Don't have an account? Register now (free) for customized features, flight alerts, and more!